Time;durP1;ratioP1;P1;durP2;ratioP2;P2;SDS_P1;SDS_P2;PMS_P1;PMS_P2;Temp;Humidity;BMP_temperature;BMP_pressure;BME280_temperature;BME280_humidity;BME280_pressure;Samples;Min_cycle;Max_cycle;Signal;HPM_P1;HPM_P2
2021/04/21 00:01:04;;;;;;;9.40;8.50;;;5.70;99.90;;;;;;5051840;28;20447;-82
2021/04/21 00:03:31;;;;;;;11.03;8.73;;;5.90;99.90;;;;;;5050592;28;20499;-81
2021/04/21 00:05:59;;;;;;;8.93;8.03;;;5.90;99.90;;;;;;5051349;28;20953;-82
2021/04/21 00:08:27;;;;;;;11.50;9.70;;;5.90;99.90;;;;;;5064522;28;20526;-81
2021/04/21 00:10:53;;;;;;;11.93;10.37;;;6.00;99.90;;;;;;5054270;28;20456;-82
2021/04/21 00:13:21;;;;;;;12.00;8.87;;;6.00;99.90;;;;;;5052348;28;20471;-82
2021/04/21 00:15:48;;;;;;;11.17;9.70;;;6.00;99.90;;;;;;5051204;28;20441;-82
2021/04/21 00:18:15;;;;;;;11.60;9.97;;;6.10;99.90;;;;;;5052014;28;20446;-82
2021/04/21 00:20:43;;;;;;;12.60;10.30;;;6.10;99.90;;;;;;5049632;28;20447;-82
2021/04/21 00:23:11;;;;;;;10.00;9.00;;;6.00;99.90;;;;;;5048667;28;20448;-82
2021/04/21 00:25:39;;;;;;;10.30;9.13;;;5.80;99.90;;;;;;5049213;28;20468;-81
2021/04/21 00:28:07;;;;;;;10.30;9.20;;;5.70;99.90;;;;;;5055673;28;20469;-81
2021/04/21 00:30:35;;;;;;;11.60;9.70;;;5.50;99.90;;;;;;5051041;28;20454;-80
2021/04/21 00:33:01;;;;;;;14.10;11.67;;;5.40;99.90;;;;;;5044869;28;20486;-81
2021/04/21 00:35:40;;;;;;;12.17;10.57;;;5.30;99.90;;;;;;5053738;28;20793;-81
2021/04/21 00:38:13;;;;;;;11.70;10.30;;;5.30;99.90;;;;;;5049403;28;20823;-81
2021/04/21 00:40:45;;;;;;;13.37;10.73;;;5.30;99.90;;;;;;5069190;28;20532;-82
2021/04/21 00:43:25;;;;;;;11.50;10.30;;;5.20;99.90;;;;;;5050497;28;20978;-81
2021/04/21 00:46:00;;;;;;;12.03;10.30;;;5.10;99.90;;;;;;5054804;28;20802;-81
2021/04/21 00:48:34;;;;;;;13.77;11.90;;;5.10;99.90;;;;;;5048369;28;20444;-81
2021/04/21 00:51:05;;;;;;;13.23;11.10;;;5.20;99.90;;;;;;5055525;28;20508;-81
2021/04/21 00:53:42;;;;;;;14.10;11.70;;;5.20;99.90;;;;;;5063016;28;20565;-81
2021/04/21 00:56:17;;;;;;;12.20;10.63;;;5.10;99.90;;;;;;5048789;28;20935;-81
2021/04/21 00:59:02;;;;;;;10.93;9.70;;;5.00;99.90;;;;;;5054054;28;20526;-80
2021/04/21 01:01:31;;;;;;;13.77;10.97;;;5.00;99.90;;;;;;5062665;28;20837;-82
2021/04/21 01:03:57;;;;;;;11.73;9.83;;;4.90;99.90;;;;;;5052805;28;20436;-82
2021/04/21 01:06:30;;;;;;;12.07;10.37;;;4.90;99.90;;;;;;5044167;28;20844;-82
2021/04/21 01:08:59;;;;;;;12.80;11.10;;;4.90;99.90;;;;;;5049932;28;20283;-81
2021/04/21 01:11:47;;;;;;;16.07;11.17;;;5.00;99.90;;;;;;5053744;28;20992;-81
2021/04/21 01:14:19;;;;;;;14.10;12.00;;;5.00;99.90;;;;;;5049834;28;20495;-81
2021/04/21 01:16:49;;;;;;;14.83;11.23;;;5.00;99.90;;;;;;5052782;28;21005;-80
2021/04/21 01:19:42;;;;;;;14.70;12.43;;;5.10;99.90;;;;;;5052619;28;20449;-81
2021/04/21 01:22:26;;;;;;;13.10;11.30;;;5.20;99.90;;;;;;5047446;28;20459;-81
2021/04/21 01:25:05;;;;;;;15.43;10.50;;;5.20;99.90;;;;;;5069090;28;20793;-80
2021/04/21 01:27:59;;;;;;;12.03;10.50;;;5.20;99.90;;;;;;5054636;28;20805;-81
2021/04/21 01:30:25;;;;;;;12.13;10.83;;;5.00;99.90;;;;;;5042590;28;20448;-81
2021/04/21 01:32:54;;;;;;;17.03;11.23;;;4.90;99.90;;;;;;5049174;28;20482;-80
2021/04/21 01:35:23;;;;;;;12.80;10.90;;;4.80;99.90;;;;;;5050285;28;20524;-81
2021/04/21 01:37:51;;;;;;;13.27;9.77;;;4.70;99.90;;;;;;5066712;28;20446;-81
2021/04/21 01:40:26;;;;;;;13.30;11.27;;;4.70;99.90;;;;;;5048864;28;20445;-81
2021/04/21 01:42:55;;;;;;;12.63;11.13;;;4.70;99.90;;;;;;5052108;28;20431;-81
2021/04/21 01:45:26;;;;;;;14.53;11.93;;;4.60;99.90;;;;;;5061906;28;20429;-81
2021/04/21 01:47:57;;;;;;;11.73;10.60;;;4.60;99.90;;;;;;5046976;28;20802;-81
2021/04/21 01:50:23;;;;;;;13.20;10.77;;;4.60;99.90;;;;;;5070157;28;20443;-82
2021/04/21 01:53:20;;;;;;;14.23;10.40;;;4.60;99.90;;;;;;5047209;28;21642;-81
2021/04/21 01:56:05;;;;;;;13.50;11.30;;;4.70;99.90;;;;;;5046053;28;21012;-81
2021/04/21 01:58:42;;;;;;;15.20;11.73;;;4.60;99.90;;;;;;5049919;28;20514;-81
2021/04/21 02:01:33;;;;;;;13.83;11.37;;;4.70;99.90;;;;;;5048824;28;20444;-81
2021/04/21 02:04:17;;;;;;;14.83;12.00;;;4.80;99.90;;;;;;5048299;28;20459;-81
2021/04/21 02:06:59;;;;;;;13.67;10.90;;;4.90;99.90;;;;;;5064612;28;20451;-81
2021/04/21 02:09:44;;;;;;;12.70;10.63;;;4.90;99.90;;;;;;5046147;28;20432;-81
2021/04/21 02:12:16;;;;;;;13.77;10.63;;;4.80;99.90;;;;;;5054440;28;20498;-81
2021/04/21 02:14:51;;;;;;;12.53;11.23;;;4.60;99.90;;;;;;5054644;28;20972;-81
2021/04/21 02:17:16;;;;;;;12.67;10.57;;;4.60;99.90;;;;;;5048450;28;20451;-81
2021/04/21 02:19:42;;;;;;;13.53;12.00;;;4.50;99.90;;;;;;5048444;28;20446;-82
2021/04/21 02:22:35;;;;;;;13.20;10.70;;;4.30;99.90;;;;;;5055478;28;20190;-82
2021/04/21 02:25:23;;;;;;;13.53;11.47;;;4.30;99.90;;;;;;5001238;28;20194;-81
2021/04/21 02:28:11;;;;;;;14.10;12.07;;;4.30;99.90;;;;;;5051283;28;20433;-81
2021/04/21 02:30:55;;;;;;;13.70;11.10;;;4.30;99.90;;;;;;5044561;28;20456;-81
2021/04/21 02:33:21;;;;;;;14.47;11.03;;;4.30;99.90;;;;;;5047890;28;20480;-81
2021/04/21 02:35:51;;;;;;;13.10;11.37;;;4.40;99.90;;;;;;5050704;28;20963;-81
2021/04/21 02:38:29;;;;;;;13.60;11.67;;;4.60;99.90;;;;;;5048548;28;20576;-81
2021/04/21 02:41:36;;;;;;;13.83;11.77;;;4.60;99.90;;;;;;5045503;28;20881;-81
2021/04/21 02:44:15;;;;;;;14.40;12.33;;;4.60;99.90;;;;;;5011260;28;20446;-81
2021/04/21 02:47:06;;;;;;;15.50;13.70;;;4.70;99.90;;;;;;5044024;28;20535;-81
2021/04/21 02:50:13;;;;;;;14.73;12.50;;;4.80;99.90;;;;;;5046320;28;20441;-81
2021/04/21 02:52:59;;;;;;;14.90;11.40;;;4.80;99.90;;;;;;5003984;28;20465;-81
2021/04/21 02:55:37;;;;;;;18.93;13.87;;;4.80;99.90;;;;;;5055385;28;20814;-81
2021/04/21 02:58:19;;;;;;;14.90;12.20;;;4.80;99.90;;;;;;5048000;28;22980;-81
2021/04/21 03:00:52;;;;;;;15.70;12.50;;;4.70;99.90;;;;;;5070806;28;20949;-81
2021/04/21 03:03:48;;;;;;;17.20;14.07;;;4.70;99.90;;;;;;5051932;28;20433;-81
2021/04/21 03:06:26;;;;;;;14.33;12.67;;;4.60;99.90;;;;;;5050198;28;20433;-81
2021/04/21 03:09:14;;;;;;;15.93;13.87;;;4.70;99.90;;;;;;5047982;28;20532;-81
2021/04/21 03:11:42;;;;;;;17.50;13.17;;;4.50;99.90;;;;;;5049603;28;20786;-81
2021/04/21 03:14:17;;;;;;;15.90;13.03;;;4.50;99.90;;;;;;5053043;28;20495;-81
2021/04/21 03:16:54;;;;;;;16.63;12.90;;;4.40;99.90;;;;;;5051725;28;20436;-80
2021/04/21 03:19:25;;;;;;;15.50;13.00;;;4.50;99.90;;;;;;5049016;28;20437;-81
2021/04/21 03:22:04;;;;;;;17.17;12.63;;;4.50;99.90;;;;;;5049949;28;20443;-80
2021/04/21 03:24:34;;;;;;;15.03;12.33;;;4.40;99.90;;;;;;5047898;28;20433;-81
2021/04/21 03:27:05;;;;;;;17.83;12.53;;;4.40;99.90;;;;;;5057304;28;20445;-82
2021/04/21 03:29:38;;;;;;;18.50;13.23;;;4.30;99.90;;;;;;5049924;28;20912;-81
2021/04/21 03:32:10;;;;;;;14.77;12.13;;;4.20;99.90;;;;;;5050329;28;20507;-80
2021/04/21 03:34:37;;;;;;;14.70;12.60;;;4.20;99.90;;;;;;5070332;28;20575;-80
2021/04/21 03:37:21;;;;;;;18.03;12.93;;;4.10;99.90;;;;;;5049664;28;20520;-80
2021/04/21 03:39:49;;;;;;;16.23;12.63;;;4.20;99.90;;;;;;5052033;28;20479;-81
2021/04/21 03:42:14;;;;;;;16.50;13.53;;;4.20;99.90;;;;;;5066651;28;21681;-81
2021/04/21 03:44:40;;;;;;;17.90;14.43;;;4.10;99.90;;;;;;5047992;28;21085;-83
2021/04/21 03:47:08;;;;;;;17.13;13.67;;;4.20;99.90;;;;;;5060683;28;20342;-81
2021/04/21 03:49:35;;;;;;;16.93;13.60;;;4.30;99.90;;;;;;5056717;28;20458;-81
2021/04/21 03:52:02;;;;;;;15.37;12.80;;;4.30;99.90;;;;;;5049580;28;20487;-81
2021/04/21 03:54:28;;;;;;;18.77;14.83;;;4.30;99.90;;;;;;5048285;28;20506;-81
2021/04/21 03:56:53;;;;;;;18.03;13.40;;;4.20;99.90;;;;;;5051410;28;20498;-82
2021/04/21 03:59:20;;;;;;;17.33;14.20;;;4.10;99.90;;;;;;5050615;28;20449;-81
2021/04/21 04:01:47;;;;;;;19.13;15.30;;;4.20;99.90;;;;;;5047807;28;20179;-81
2021/04/21 04:04:17;;;;;;;17.50;14.87;;;4.20;99.90;;;;;;5048654;28;20453;-81
2021/04/21 04:06:46;;;;;;;17.87;14.87;;;4.20;99.90;;;;;;5048732;28;20451;-81
2021/04/21 04:09:14;;;;;;;20.27;15.43;;;4.20;99.90;;;;;;5048570;28;20499;-81
2021/04/21 04:11:55;;;;;;;22.33;15.33;;;4.10;99.90;;;;;;5048429;28;20436;-81
2021/04/21 04:14:24;;;;;;;25.80;16.10;;;4.10;99.90;;;;;;5063738;28;20479;-81
2021/04/21 04:16:56;;;;;;;20.10;14.90;;;4.10;99.90;;;;;;5047282;28;20448;-81
2021/04/21 04:19:22;;;;;;;17.80;14.20;;;4.00;99.90;;;;;;5052588;28;20451;-81
2021/04/21 04:21:56;;;;;;;21.83;15.83;;;4.00;99.90;;;;;;5048275;28;21202;-81
2021/04/21 04:24:23;;;;;;;19.17;14.33;;;3.90;99.90;;;;;;5053412;28;20535;-82
2021/04/21 04:26:49;;;;;;;22.40;14.60;;;4.00;99.90;;;;;;5064565;28;20770;-82
2021/04/21 04:29:15;;;;;;;18.17;14.80;;;4.10;99.90;;;;;;5055161;28;20462;-81
2021/04/21 04:31:41;;;;;;;21.47;15.00;;;4.10;99.90;;;;;;5051047;28;20456;-81
2021/04/21 04:34:09;;;;;;;18.60;14.33;;;4.10;99.90;;;;;;5048644;28;20548;-81
2021/04/21 04:36:38;;;;;;;18.77;15.50;;;4.10;99.90;;;;;;5060541;28;20455;-80
2021/04/21 04:39:06;;;;;;;19.63;14.57;;;4.20;99.90;;;;;;5046798;28;20457;-81
2021/04/21 04:41:32;;;;;;;20.33;14.37;;;4.20;99.90;;;;;;5054549;28;20975;-81
2021/04/21 04:43:59;;;;;;;16.60;13.37;;;4.20;99.90;;;;;;5063045;28;20460;-82
2021/04/21 04:46:30;;;;;;;17.93;14.17;;;4.10;99.90;;;;;;5048855;28;20448;-82
2021/04/21 04:49:10;;;;;;;17.60;14.50;;;4.10;99.90;;;;;;5050083;28;21056;-82
2021/04/21 04:51:43;;;;;;;19.83;14.97;;;4.10;99.90;;;;;;5054398;28;20480;-82
2021/04/21 04:54:11;;;;;;;19.90;15.50;;;4.10;99.90;;;;;;5058428;28;20487;-82
2021/04/21 04:56:37;;;;;;;19.47;14.97;;;4.10;99.90;;;;;;5055418;28;21010;-82
2021/04/21 04:59:06;;;;;;;18.43;14.80;;;4.20;99.90;;;;;;5052645;28;20806;-82
2021/04/21 05:01:47;;;;;;;21.37;15.70;;;4.20;99.90;;;;;;5069993;28;20783;-82
2021/04/21 05:04:14;;;;;;;18.53;14.87;;;4.20;99.90;;;;;;5052974;28;20469;-82
2021/04/21 05:06:49;;;;;;;20.60;15.87;;;4.20;99.90;;;;;;5059055;28;20813;-82
2021/04/21 05:09:17;;;;;;;19.40;14.97;;;4.20;99.90;;;;;;5071002;28;20523;-82
2021/04/21 05:11:46;;;;;;;24.27;16.33;;;4.30;99.90;;;;;;5053818;28;21715;-82
2021/04/21 05:14:16;;;;;;;21.30;16.07;;;4.30;99.90;;;;;;5057337;28;20485;-82
2021/04/21 05:16:57;;;;;;;19.90;14.77;;;4.40;99.90;;;;;;5071188;28;20866;-81
2021/04/21 05:19:37;;;;;;;18.10;14.80;;;4.40;99.90;;;;;;5072218;28;20448;-82
2021/04/21 05:22:09;;;;;;;18.00;14.80;;;4.50;99.90;;;;;;5057683;28;20435;-82
2021/04/21 05:25:08;;;;;;;19.13;15.07;;;4.50;99.90;;;;;;5052340;28;20497;-82
2021/04/21 05:27:46;;;;;;;19.20;14.17;;;4.50;99.90;;;;;;5053588;28;20444;-82
2021/04/21 05:30:49;;;;;;;20.23;15.43;;;4.50;99.90;;;;;;5049055;28;21393;-82
2021/04/21 05:33:33;;;;;;;22.90;16.53;;;4.50;99.90;;;;;;5051543;28;20559;-82
2021/04/21 05:36:27;;;;;;;19.60;15.33;;;4.50;99.90;;;;;;5054447;28;20451;-83
2021/04/21 05:39:32;;;;;;;20.17;14.67;;;4.60;99.90;;;;;;5048689;28;20441;-85
2021/04/21 05:42:25;;;;;;;19.70;15.40;;;4.70;99.90;;;;;;5066058;28;20455;-82
2021/04/21 05:45:03;;;;;;;17.27;14.40;;;4.80;99.90;;;;;;5055426;28;20444;-82
2021/04/21 05:47:45;;;;;;;17.40;15.13;;;4.90;99.90;;;;;;5057654;28;20912;-83
2021/04/21 05:50:25;;;;;;;18.30;15.37;;;5.00;99.90;;;;;;5051200;28;20439;-83
2021/04/21 05:53:15;;;;;;;20.37;15.53;;;5.10;99.90;;;;;;5050976;28;21011;-83
2021/04/21 05:56:24;;;;;;;19.87;14.87;;;5.30;99.90;;;;;;5053413;28;20858;-83
2021/04/21 05:59:29;;;;;;;17.73;13.50;;;5.40;99.90;;;;;;5046833;28;21027;-83
2021/04/21 06:01:56;;;;;;;19.50;15.07;;;5.50;99.90;;;;;;5031527;28;20448;-83
2021/04/21 06:04:24;;;;;;;19.80;15.50;;;5.60;99.90;;;;;;5052511;28;20444;-84
2021/04/21 06:07:14;;;;;;;18.50;14.73;;;5.60;99.90;;;;;;5048422;28;20544;-83
2021/04/21 06:09:43;;;;;;;21.50;16.70;;;5.70;99.90;;;;;;5069036;28;20441;-83
2021/04/21 06:12:16;;;;;;;21.93;16.30;;;5.80;99.90;;;;;;5057127;28;20585;-80
2021/04/21 06:14:45;;;;;;;16.93;15.10;;;6.00;99.90;;;;;;5054235;28;20488;-87
2021/04/21 06:17:12;;;;;;;17.13;14.17;;;6.20;99.90;;;;;;5054112;28;20440;-87
2021/04/21 06:19:42;;;;;;;20.67;15.30;;;6.30;99.90;;;;;;5034822;28;20484;-87
2021/04/21 06:22:09;;;;;;;18.43;13.80;;;6.40;99.90;;;;;;5069731;28;20516;-88
2021/04/21 06:24:35;;;;;;;19.60;15.43;;;6.50;99.90;;;;;;5053888;28;20479;-86
2021/04/21 06:27:13;;;;;;;18.93;15.73;;;6.70;99.90;;;;;;5053982;28;21195;-86
2021/04/21 06:29:41;;;;;;;20.07;14.80;;;6.80;99.90;;;;;;5050241;28;20191;-84
2021/04/21 06:32:13;;;;;;;20.87;15.00;;;6.80;99.90;;;;;;5051802;28;21081;-84
2021/04/21 06:34:39;;;;;;;19.43;15.03;;;6.90;99.90;;;;;;5050125;28;20487;-87
2021/04/21 06:37:04;;;;;;;33.07;27.80;;;7.10;99.90;;;;;;5052207;28;20696;-84
2021/04/21 06:39:32;;;;;;;29.53;26.30;;;7.20;99.90;;;;;;5071132;28;20795;-85
2021/04/21 06:42:03;;;;;;;27.57;22.93;;;7.30;99.90;;;;;;5054308;28;20500;-86
2021/04/21 06:44:42;;;;;;;19.33;14.90;;;7.30;99.90;;;;;;5065133;28;20546;-87
2021/04/21 06:47:19;;;;;;;16.33;13.43;;;7.50;99.90;;;;;;5059023;28;20468;-85
2021/04/21 06:50:08;;;;;;;17.67;14.10;;;7.60;99.90;;;;;;5073932;28;20441;-89
2021/04/21 06:52:37;;;;;;;17.80;15.10;;;7.60;99.90;;;;;;5053562;28;20549;-88
2021/04/21 06:55:38;;;;;;;20.43;14.93;;;7.50;99.90;;;;;;5049596;28;20455;-88
2021/04/21 06:58:27;;;;;;;17.57;14.03;;;7.50;99.90;;;;;;5075201;28;20488;-88
2021/04/21 07:01:14;;;;;;;18.80;15.30;;;7.80;99.90;;;;;;5054363;28;20473;-87
2021/04/21 07:03:41;;;;;;;19.40;14.67;;;8.00;99.90;;;;;;5070514;28;21436;-89
2021/04/21 07:06:09;;;;;;;18.73;15.87;;;8.20;99.90;;;;;;5049692;28;20435;-86
2021/04/21 07:08:44;;;;;;;17.40;15.60;;;8.40;99.90;;;;;;5051290;28;20449;-87
2021/04/21 07:11:20;;;;;;;17.93;15.93;;;8.60;99.90;;;;;;5071185;28;20444;-85
2021/04/21 07:13:51;;;;;;;19.83;17.00;;;8.70;99.90;;;;;;5051144;28;21065;-85
2021/04/21 07:16:23;;;;;;;23.70;18.50;;;8.70;99.90;;;;;;5057050;28;20432;-87
2021/04/21 07:18:58;;;;;;;18.30;16.27;;;8.80;99.90;;;;;;5055542;28;20442;-87
2021/04/21 07:21:25;;;;;;;19.10;15.83;;;9.00;99.90;;;;;;5054498;28;20808;-88
2021/04/21 07:23:56;;;;;;;21.00;17.27;;;9.30;99.90;;;;;;5034635;28;20857;-87
2021/04/21 07:26:33;;;;;;;24.97;17.80;;;9.40;99.90;;;;;;5048766;28;20532;-86
2021/04/21 07:29:00;;;;;;;21.50;16.80;;;9.60;99.90;;;;;;5052939;28;20449;-86
2021/04/21 07:31:25;;;;;;;18.30;16.40;;;9.80;99.90;;;;;;5066708;28;20543;-87
2021/04/21 07:33:52;;;;;;;22.20;16.43;;;10.00;99.90;;;;;;5052373;28;20478;-87
2021/04/21 07:36:26;;;;;;;22.00;16.80;;;10.10;99.90;;;;;;5034292;28;20471;-87
2021/04/21 07:38:54;;;;;;;20.60;17.10;;;10.30;99.90;;;;;;5048157;28;20815;-85
2021/04/21 07:41:36;;;;;;;20.40;17.27;;;10.30;99.90;;;;;;5058668;28;20493;-85
2021/04/21 07:44:06;;;;;;;20.40;16.43;;;10.40;99.90;;;;;;5045821;28;20442;-88
2021/04/21 07:46:34;;;;;;;18.83;16.83;;;10.40;99.90;;;;;;5064068;28;20563;-86
2021/04/21 07:49:08;;;;;;;18.07;16.20;;;10.50;99.90;;;;;;5051596;28;20478;-87
2021/04/21 07:51:36;;;;;;;20.60;17.40;;;10.70;99.90;;;;;;5049326;28;20538;-88
2021/04/21 07:54:07;;;;;;;20.20;17.40;;;11.00;99.90;;;;;;5049146;28;20519;-86
2021/04/21 07:56:51;;;;;;;22.00;17.63;;;10.90;99.90;;;;;;5069284;28;20436;-86
2021/04/21 07:59:29;;;;;;;20.00;17.90;;;11.10;99.90;;;;;;5054779;28;20460;-88
2021/04/21 08:02:31;;;;;;;22.40;17.40;;;11.10;99.90;;;;;;5049430;28;20443;-90
2021/04/21 08:05:11;;;;;;;21.33;16.97;;;11.30;99.90;;;;;;5051935;28;20467;-94
2021/04/21 08:08:16;;;;;;;18.80;16.13;;;11.60;99.90;;;;;;5062857;28;20440;-95
2021/04/21 08:10:51;;;;;;;19.90;17.17;;;11.90;99.90;;;;;;5065785;28;21046;-93
2021/04/21 08:13:17;;;;;;;20.23;18.00;;;12.10;99.90;;;;;;5052733;28;20476;-90
2021/04/21 08:15:43;;;;;;;19.83;17.17;;;12.20;99.90;;;;;;5047274;28;20451;-90
2021/04/21 08:18:14;;;;;;;19.63;16.90;;;12.20;99.90;;;;;;5053633;28;20190;-89
2021/04/21 08:20:43;;;;;;;26.37;18.93;;;12.30;99.90;;;;;;5078801;28;20776;-90
2021/04/21 08:23:10;;;;;;;20.33;17.87;;;12.40;99.60;;;;;;5076521;28;20440;-91
2021/04/21 08:25:37;;;;;;;20.70;18.10;;;12.40;99.90;;;;;;5075783;28;20872;-91
2021/04/21 08:28:07;;;;;;;20.33;18.13;;;12.60;99.70;;;;;;5075536;28;20480;-88
2021/04/21 08:30:33;;;;;;;21.13;18.83;;;12.90;99.90;;;;;;5073368;28;20490;-90
2021/04/21 08:33:00;;;;;;;23.90;17.23;;;12.90;99.90;;;;;;5060035;28;20618;-90
2021/04/21 08:35:29;;;;;;;21.40;18.50;;;13.20;98.40;;;;;;5052039;28;20453;-90
2021/04/21 08:37:55;;;;;;;20.17;17.90;;;13.50;97.60;;;;;;5068833;28;20518;-92
2021/04/21 08:40:24;;;;;;;22.57;19.97;;;13.20;97.70;;;;;;5060106;28;20973;-90
2021/04/21 08:42:55;;;;;;;29.03;19.03;;;12.90;97.50;;;;;;5069098;28;20199;-91
2021/04/21 08:45:21;;;;;;;24.43;19.83;;;13.10;97.70;;;;;;5051073;28;21404;-90
2021/04/21 08:47:49;;;;;;;22.53;18.40;;;13.10;97.60;;;;;;5070705;28;20576;-90
2021/04/21 08:50:16;;;;;;;18.97;16.97;;;13.10;98.00;;;;;;5068054;28;20194;-91
2021/04/21 08:52:50;;;;;;;20.47;18.20;;;13.30;97.70;;;;;;5069534;28;20448;-91
2021/04/21 08:55:19;;;;;;;21.83;17.70;;;13.80;98.20;;;;;;5073442;28;20826;-91
2021/04/21 08:57:47;;;;;;;21.57;18.10;;;13.80;96.70;;;;;;5049467;28;20960;-90
2021/04/21 09:00:17;;;;;;;20.70;17.37;;;14.20;97.70;;;;;;5073945;28;20440;-90
2021/04/21 09:02:46;;;;;;;20.40;18.00;;;14.50;96.40;;;;;;5070311;28;20437;-88
2021/04/21 09:05:18;;;;;;;19.20;17.10;;;14.60;95.60;;;;;;5048741;28;20516;-87
2021/04/21 09:07:44;;;;;;;20.30;18.13;;;14.40;95.80;;;;;;5068568;28;20441;-88
2021/04/21 09:10:12;;;;;;;19.00;16.63;;;14.40;95.80;;;;;;5068623;28;20445;-87
2021/04/21 09:12:39;;;;;;;18.53;16.63;;;14.60;96.30;;;;;;5051462;28;20840;-88
2021/04/21 09:15:08;;;;;;;18.97;16.93;;;15.00;95.80;;;;;;5070901;28;20543;-88
2021/04/21 09:17:46;;;;;;;20.97;17.67;;;15.40;95.30;;;;;;5077985;28;20452;-88
2021/04/21 09:20:14;;;;;;;27.67;17.60;;;15.90;94.60;;;;;;5056505;28;20455;-87
2021/04/21 09:23:11;;;;;;;27.43;16.10;;;16.30;95.20;;;;;;5072946;28;20523;-87
2021/04/21 09:26:01;;;;;;;19.20;15.87;;;16.60;92.30;;;;;;5073193;28;20542;-87
2021/04/21 09:28:37;;;;;;;17.87;15.80;;;16.60;91.10;;;;;;5073081;28;20529;-87
2021/04/21 09:31:04;;;;;;;17.90;16.20;;;16.90;94.20;;;;;;5070440;28;20465;-86
2021/04/21 09:33:30;;;;;;;18.77;16.90;;;17.00;91.50;;;;;;5074781;28;20498;-86
2021/04/21 09:35:56;;;;;;;17.50;15.80;;;17.00;92.20;;;;;;5070370;28;21554;-86
2021/04/21 09:38:35;;;;;;;17.90;16.10;;;17.30;88.10;;;;;;5074252;28;20467;-90
2021/04/21 09:41:14;;;;;;;16.60;14.90;;;17.40;89.80;;;;;;5050933;28;20501;-86
2021/04/21 09:43:45;;;;;;;21.03;18.90;;;17.60;86.40;;;;;;5060129;28;20436;-87
2021/04/21 09:46:15;;;;;;;15.10;13.70;;;17.50;81.40;;;;;;5037193;28;20453;-87
2021/04/21 09:48:43;;;;;;;15.53;13.93;;;17.30;79.70;;;;;;5061667;28;20432;-87
2021/04/21 09:51:12;;;;;;;14.73;13.23;;;17.50;84.10;;;;;;5072278;28;20443;-87
2021/04/21 09:53:46;;;;;;;13.87;12.50;;;17.60;80.00;;;;;;5058608;28;20994;-86
2021/04/21 09:56:20;;;;;;;13.40;12.10;;;17.60;79.60;;;;;;5055491;28;20505;-85
2021/04/21 09:58:59;;;;;;;12.10;10.90;;;17.80;73.70;;;;;;5056739;28;20452;-87
2021/04/21 10:01:38;;;;;;;12.33;11.13;;;18.20;65.90;;;;;;5035342;28;20468;-87
2021/04/21 10:04:16;;;;;;;14.63;13.13;;;18.60;67.10;;;;;;5055719;28;20479;-89
2021/04/21 10:06:50;;;;;;;14.70;13.10;;;18.50;73.30;;;;;;5054466;28;20489;-87
2021/04/21 10:09:34;;;;;;;13.90;12.60;;;18.40;71.30;;;;;;5052356;28;20444;-88
2021/04/21 10:12:26;;;;;;;12.10;10.90;;;18.50;68.90;;;;;;5055128;28;21675;-88
2021/04/21 10:15:00;;;;;;;12.87;11.57;;;18.10;62.00;;;;;;5052753;28;20492;-89
2021/04/21 10:17:31;;;;;;;14.10;12.33;;;18.40;70.10;;;;;;5050132;28;20442;-87
2021/04/21 10:19:58;;;;;;;14.63;13.13;;;18.60;76.10;;;;;;5043546;28;20449;-87
2021/04/21 10:22:24;;;;;;;15.13;13.53;;;18.70;78.30;;;;;;5052606;28;20436;-88
2021/04/21 10:24:52;;;;;;;15.67;14.03;;;18.70;75.90;;;;;;5070920;28;20436;-89
2021/04/21 10:27:18;;;;;;;14.33;12.93;;;18.80;72.90;;;;;;5050927;28;20614;-90
2021/04/21 10:29:44;;;;;;;15.37;13.53;;;18.80;66.00;;;;;;5052167;28;20526;-89
2021/04/21 10:32:15;;;;;;;13.20;11.90;;;18.00;58.70;;;;;;5055869;28;20183;-86
2021/04/21 10:34:43;;;;;;;8.73;7.90;;;17.80;64.90;;;;;;5050431;28;20556;-89
2021/04/21 10:37:10;;;;;;;9.87;8.83;;;18.40;56.00;;;;;;5052716;28;20464;-87
2021/04/21 10:39:38;;;;;;;10.70;9.60;;;18.90;55.90;;;;;;5054062;28;21054;-88
2021/04/21 10:42:15;;;;;;;8.53;7.63;;;19.20;53.50;;;;;;5051438;28;20453;-88
2021/04/21 10:44:47;;;;;;;9.20;8.30;;;19.00;49.80;;;;;;5052787;28;20444;-89
2021/04/21 10:47:17;;;;;;;9.20;8.30;;;18.60;48.40;;;;;;5049849;28;20532;-88
2021/04/21 10:50:18;;;;;;;6.80;6.00;;;18.60;51.80;;;;;;5052510;28;21525;-92
2021/04/21 10:52:43;;;;;;;10.33;9.33;;;19.00;51.60;;;;;;5046835;28;20540;-89
2021/04/21 10:55:10;;;;;;;11.57;10.50;;;19.60;54.70;;;;;;5051038;28;20445;-89
2021/04/21 10:57:40;;;;;;;15.90;13.73;;;19.90;51.20;;;;;;5057237;28;20198;-88
2021/04/21 11:00:40;;;;;;;9.00;8.20;;;20.30;53.00;;;;;;5054840;28;20454;-90
2021/04/21 11:03:41;;;;;;;9.03;7.87;;;20.60;54.90;;;;;;5056989;28;20429;-90
2021/04/21 11:06:17;;;;;;;;;;;;;;;;;;;;;
2021/04/21 11:09:23;;;;;;;;;;;;;;;;;;;;;
2021/04/21 11:11:58;;;;;;;9.33;8.40;;;20.60;48.10;;;;;;5064373;28;20471;-90
2021/04/21 11:14:48;;;;;;;9.83;8.67;;;20.10;48.80;;;;;;5048302;28;20455;-88
2021/04/21 11:17:31;;;;;;;;;;;;;;;;;;;;;
2021/04/21 11:19:57;;;;;;;10.83;9.63;;;20.50;49.80;;;;;;5068342;28;20781;-88
2021/04/21 11:22:28;;;;;;;10.20;9.20;;;20.40;48.10;;;;;;5056043;28;20457;-88
2021/04/21 11:25:21;;;;;;;10.07;9.00;;;19.90;46.50;;;;;;5056052;28;20221;-89
2021/04/21 11:27:47;;;;;;;10.77;9.40;;;19.50;47.40;;;;;;5055614;28;20447;-88
2021/04/21 11:30:31;;;;;;;10.57;9.57;;;18.80;45.00;;;;;;5050359;28;20444;-88
2021/04/21 11:33:00;;;;;;;9.93;9.13;;;19.00;46.50;;;;;;5052171;28;20221;-88
2021/04/21 11:35:32;;;;;;;10.27;9.27;;;19.00;47.10;;;;;;5049342;28;20440;-88
2021/04/21 11:37:59;;;;;;;10.63;9.60;;;19.20;48.00;;;;;;5052461;28;20183;-88
2021/04/21 11:40:30;;;;;;;12.03;10.70;;;19.20;47.20;;;;;;5051961;28;20448;-89
2021/04/21 11:43:18;;;;;;;10.13;9.23;;;19.40;46.10;;;;;;5053010;28;20483;-88
2021/04/21 11:45:44;;;;;;;12.00;8.80;;;20.00;47.60;;;;;;5051536;28;21243;-89
2021/04/21 11:48:12;;;;;;;11.30;10.20;;;20.10;45.10;;;;;;5050352;28;20459;-88
2021/04/21 11:50:41;;;;;;;9.70;8.70;;;20.60;46.70;;;;;;5048714;28;21824;-89
2021/04/21 11:53:09;;;;;;;9.80;8.80;;;20.50;46.10;;;;;;5054745;28;20523;-88
2021/04/21 11:55:56;;;;;;;8.97;8.17;;;20.80;43.50;;;;;;5057209;28;20432;-88
2021/04/21 11:58:29;;;;;;;9.77;8.87;;;20.80;44.80;;;;;;5056262;28;21076;-88
2021/04/21 12:01:03;;;;;;;10.33;9.23;;;20.30;43.30;;;;;;5053295;28;20875;-88
2021/04/21 12:03:33;;;;;;;10.43;9.53;;;19.90;42.50;;;;;;5063651;28;20937;-89
2021/04/21 12:06:10;;;;;;;10.33;9.33;;;19.90;43.70;;;;;;5059206;28;20480;-89
2021/04/21 12:08:41;;;;;;;10.33;9.23;;;19.20;41.50;;;;;;5054397;28;21004;-88
2021/04/21 12:11:08;;;;;;;11.47;9.13;;;19.60;43.50;;;;;;5060783;28;20771;-88
2021/04/21 12:13:44;;;;;;;10.70;8.40;;;19.90;43.40;;;;;;5059562;28;21535;-88
2021/04/21 12:16:14;;;;;;;10.90;7.50;;;19.90;43.30;;;;;;5071214;28;20484;-88
2021/04/21 12:18:46;;;;;;;9.60;8.53;;;20.30;41.60;;;;;;5075059;28;20548;-88
2021/04/21 12:21:15;;;;;;;7.53;6.83;;;20.20;40.30;;;;;;5062715;28;20434;-88
2021/04/21 12:23:43;;;;;;;7.50;6.80;;;20.00;39.20;;;;;;5072690;28;20507;-88
2021/04/21 12:26:23;;;;;;;7.93;7.07;;;20.10;38.90;;;;;;5058114;28;20802;-88
2021/04/21 12:28:55;;;;;;;7.00;6.40;;;20.40;40.50;;;;;;5057080;28;20451;-88
2021/04/21 12:31:22;;;;;;;9.07;7.10;;;20.30;36.60;;;;;;5055907;28;20436;-88
2021/04/21 12:33:53;;;;;;;7.10;6.40;;;20.50;40.30;;;;;;5055261;28;20445;-88
2021/04/21 12:36:22;;;;;;;9.50;7.20;;;20.70;38.10;;;;;;5074802;28;20432;-88
2021/04/21 12:39:00;;;;;;;6.93;6.33;;;21.10;41.40;;;;;;5059553;28;20440;-89
2021/04/21 12:41:27;;;;;;;6.83;6.10;;;21.40;37.80;;;;;;5053772;28;20488;-87
2021/04/21 12:43:52;;;;;;;6.17;5.57;;;21.60;37.60;;;;;;5055010;28;20473;-87
2021/04/21 12:46:21;;;;;;;6.83;6.13;;;22.20;38.40;;;;;;5056497;28;20432;-87
2021/04/21 12:48:56;;;;;;;6.67;6.07;;;22.80;36.20;;;;;;5055777;28;20182;-88
2021/04/21 12:51:31;;;;;;;7.30;6.70;;;23.30;33.10;;;;;;5055232;28;20451;-87
2021/04/21 12:54:02;;;;;;;7.73;6.93;;;23.00;33.90;;;;;;5056931;28;20452;-87
2021/04/21 12:56:39;;;;;;;7.47;6.77;;;22.10;34.40;;;;;;5057642;28;20957;-87
2021/04/21 12:59:15;;;;;;;7.50;6.70;;;21.60;34.10;;;;;;5055337;28;21712;-87
2021/04/21 13:01:40;;;;;;;8.00;7.23;;;21.30;35.60;;;;;;5059659;28;20543;-87
2021/04/21 13:04:06;;;;;;;9.63;7.80;;;21.20;36.30;;;;;;5056507;28;20950;-87
2021/04/21 13:06:45;;;;;;;9.63;7.60;;;20.90;35.40;;;;;;5052955;28;20183;-87
2021/04/21 13:09:17;;;;;;;8.33;7.53;;;20.60;35.30;;;;;;5072385;28;20186;-87
2021/04/21 13:11:45;;;;;;;7.40;6.70;;;21.10;35.00;;;;;;5056649;28;20436;-87
2021/04/21 13:14:12;;;;;;;7.90;6.30;;;21.40;32.80;;;;;;5059121;28;20455;-87
2021/04/21 13:16:47;;;;;;;7.90;7.20;;;21.70;32.50;;;;;;5056746;28;20437;-87